This demonstration page uses our WeatherBlox Daily Observations layout. Learn more.

41.55636, -103.73856

Hourly Observations for February 3, 2019

Temp ( °F °C ) Dew Point ( °F °C ) Humidity (%) Winds ( mph kmh ) Pressure ( in mb ) Visibility ( mi km ) Precip ( " mm )
12:58 am 00:58 Clear 45 7.4 23 -4.8 42 42 WSW 10 17 29.72 1006 10 16.0934 N/A
1:58 am 01:58 Mostly Cloudy 44 6.5 24 -4.3 46 46 WSW 9 15 29.71 1006 10 16.0934 N/A
2:58 am 02:58 Mostly Cloudy 39 3.9 25 -3.7 58 58 W 8 13 29.71 1006 10 16.0934 N/A
3:58 am 03:58 Mostly Cloudy 40 4.3 24 -4.5 53 53 SW 13 20 29.7 1006 10 16.0934 N/A
4:58 am 04:58 Mostly Cloudy 42 5.5 20 -6.6 42 42 SW 13 20 29.63 1003 10 16.0934 N/A
5:58 am 05:58 Mostly Cloudy 43 6.1 19 -7.3 38 38 SW 9 15 29.6 1002 10 16.0934 N/A
6:58 am 06:58 Mostly Cloudy 40 4.6 21 -6.2 46 46 SSW 12 19 29.6 1002 10 16.0934 N/A
7:58 am 07:58 Mostly Cloudy 40 4.3 22 -5.4 50 50 W 8 13 29.58 1002 10 16.0934 N/A
8:58 am 08:58 Mostly Cloudy 42 5.4 21 -6.3 43 43 SW 8 13 29.57 1001 10 16.0934 N/A
9:58 am 09:58 Mostly Cloudy 43 6 19 -7.4 38 38 SW 6 9 29.54 1000 10 16.0934 N/A
10:58 am 10:58 Mostly Cloudy 42 5.6 17 -8.1 37 37 S 8 13 29.52 1000 10 16.0934 N/A
11:58 am 11:58 Mostly Cloudy 40 4.5 17 -8.2 40 40 S 7 11 29.54 1000 10 16.0934 N/A
12:58 pm 12:58 Cloudy with Light Showers 40 4.3 21 -6.3 46 46 S 8 13 29.54 1001 10 16.0934 N/A
1:58 pm 13:58 Cloudy 44 6.7 17 -8.1 34 34 SSW 7 11 29.52 1000 10 16.0934 N/A
2:58 pm 14:58 Mostly Cloudy 44 6.5 20 -6.9 38 38 SE 7 11 29.5 999 10 16.0934 N/A
3:58 pm 15:58 Mostly Cloudy 43 6 21 -5.9 43 43 SW 13 20 29.54 1000 10 16.0934 N/A
4:58 pm 16:58 Cloudy 44 6.6 23 -5 44 44 SE 7 11 29.48 998 10 16.0934 N/A
5:58 pm 17:58 Mostly Cloudy 54 12 22 -5.7 29 29 SSE 14 22 29.39 995 10 16.0934 N/A
6:58 pm 18:58 Partly Cloudy 55 12.6 24 -4.7 30 30 S 17 28 29.37 995 10 16.0934 N/A
7:58 pm 19:58 Mostly Cloudy 54 12 26 -3.5 34 34 SW 12 19 29.38 995 10 16.0934 N/A
8:58 pm 20:58 Mostly Cloudy 46 7.9 33 0.6 60 60 WNW 15 24 29.46 998 10 16.0934 N/A
9:58 pm 21:58 Mostly Cloudy 48 9 31 -0.7 51 51 N 15 24 29.43 997 10 16.0934 N/A
10:58 pm 22:58 Sunny 49 9.6 28 -2.5 43 43 WNW 16 26 29.48 998 10 16.0934 N/A

Powered by AerisWeather